sensor_id;sensor_type;location;lat;lon;timestamp;P1;durP1;ratioP1;P2;durP2;ratioP2
20855;SDS011;63058;49.424;8.420;2024-02-26T00:00:29;2.08;;;1.50;;
20855;SDS011;63058;49.424;8.420;2024-02-26T00:02:55;1.80;;;1.23;;
20855;SDS011;63058;49.424;8.420;2024-02-26T00:05:21;2.53;;;1.40;;
20855;SDS011;63058;49.424;8.420;2024-02-26T00:07:46;2.00;;;1.30;;
20855;SDS011;63058;49.424;8.420;2024-02-26T00:10:13;1.48;;;1.20;;
20855;SDS011;63058;49.424;8.420;2024-02-26T00:12:39;1.95;;;1.20;;
20855;SDS011;63058;49.424;8.420;2024-02-26T00:15:05;1.40;;;0.90;;
20855;SDS011;63058;49.424;8.420;2024-02-26T00:17:32;1.58;;;0.90;;
20855;SDS011;63058;49.424;8.420;2024-02-26T00:19:58;1.75;;;0.85;;
20855;SDS011;63058;49.424;8.420;2024-02-26T00:22:23;1.25;;;0.95;;
20855;SDS011;63058;49.424;8.420;2024-02-26T00:24:49;1.63;;;0.90;;
20855;SDS011;63058;49.424;8.420;2024-02-26T00:27:14;1.05;;;0.80;;
20855;SDS011;63058;49.424;8.420;2024-02-26T00:29:40;1.00;;;0.82;;
20855;SDS011;63058;49.424;8.420;2024-02-26T00:32:05;1.25;;;0.90;;
20855;SDS011;63058;49.424;8.420;2024-02-26T00:34:31;1.00;;;0.90;;
20855;SDS011;63058;49.424;8.420;2024-02-26T00:36:57;1.90;;;0.93;;
20855;SDS011;63058;49.424;8.420;2024-02-26T00:39:22;1.08;;;0.95;;
20855;SDS011;63058;49.424;8.420;2024-02-26T00:41:48;2.00;;;0.88;;
20855;SDS011;63058;49.424;8.420;2024-02-26T00:44:13;1.30;;;0.93;;
20855;SDS011;63058;49.424;8.420;2024-02-26T00:46:39;1.30;;;1.10;;
20855;SDS011;63058;49.424;8.420;2024-02-26T00:49:04;1.75;;;0.90;;
20855;SDS011;63058;49.424;8.420;2024-02-26T00:51:30;1.17;;;0.93;;
20855;SDS011;63058;49.424;8.420;2024-02-26T00:53:56;1.80;;;0.88;;
20855;SDS011;63058;49.424;8.420;2024-02-26T00:56:22;1.67;;;0.90;;
20855;SDS011;63058;49.424;8.420;2024-02-26T00:58:47;1.38;;;0.95;;
20855;SDS011;63058;49.424;8.420;2024-02-26T01:01:13;1.30;;;1.02;;
20855;SDS011;63058;49.424;8.420;2024-02-26T01:03:38;1.00;;;0.90;;
20855;SDS011;63058;49.424;8.420;2024-02-26T01:06:04;2.33;;;1.08;;
20855;SDS011;63058;49.424;8.420;2024-02-26T01:08:29;1.35;;;0.82;;
20855;SDS011;63058;49.424;8.420;2024-02-26T01:10:56;1.65;;;1.02;;
20855;SDS011;63058;49.424;8.420;2024-02-26T01:13:22;1.92;;;1.10;;
20855;SDS011;63058;49.424;8.420;2024-02-26T01:15:47;1.52;;;1.08;;
20855;SDS011;63058;49.424;8.420;2024-02-26T01:18:13;1.77;;;1.00;;
20855;SDS011;63058;49.424;8.420;2024-02-26T01:20:39;1.45;;;1.00;;
20855;SDS011;63058;49.424;8.420;2024-02-26T01:23:04;2.05;;;1.00;;
20855;SDS011;63058;49.424;8.420;2024-02-26T01:25:30;1.45;;;1.02;;
20855;SDS011;63058;49.424;8.420;2024-02-26T01:27:55;1.75;;;1.10;;
20855;SDS011;63058;49.424;8.420;2024-02-26T01:30:21;1.75;;;1.27;;
20855;SDS011;63058;49.424;8.420;2024-02-26T01:32:46;1.13;;;0.90;;
20855;SDS011;63058;49.424;8.420;2024-02-26T01:35:12;1.42;;;1.10;;
20855;SDS011;63058;49.424;8.420;2024-02-26T01:37:38;2.78;;;1.20;;
20855;SDS011;63058;49.424;8.420;2024-02-26T01:40:05;1.88;;;1.35;;
20855;SDS011;63058;49.424;8.420;2024-02-26T01:42:32;1.50;;;1.20;;
20855;SDS011;63058;49.424;8.420;2024-02-26T01:44:58;1.98;;;1.20;;
20855;SDS011;63058;49.424;8.420;2024-02-26T01:47:26;2.97;;;1.17;;
20855;SDS011;63058;49.424;8.420;2024-02-26T01:49:53;1.73;;;1.27;;
20855;SDS011;63058;49.424;8.420;2024-02-26T01:52:19;1.85;;;1.10;;
20855;SDS011;63058;49.424;8.420;2024-02-26T01:54:47;1.33;;;1.10;;
20855;SDS011;63058;49.424;8.420;2024-02-26T01:57:13;1.60;;;1.00;;
20855;SDS011;63058;49.424;8.420;2024-02-26T01:59:39;1.38;;;1.20;;
20855;SDS011;63058;49.424;8.420;2024-02-26T02:02:07;1.50;;;1.20;;
20855;SDS011;63058;49.424;8.420;2024-02-26T02:04:35;1.60;;;1.20;;
20855;SDS011;63058;49.424;8.420;2024-02-26T02:07:01;1.30;;;1.17;;
20855;SDS011;63058;49.424;8.420;2024-02-26T02:09:27;1.60;;;1.00;;
20855;SDS011;63058;49.424;8.420;2024-02-26T02:11:53;3.58;;;1.05;;
20855;SDS011;63058;49.424;8.420;2024-02-26T02:14:19;1.08;;;0.98;;
20855;SDS011;63058;49.424;8.420;2024-02-26T02:16:45;1.40;;;1.15;;
20855;SDS011;63058;49.424;8.420;2024-02-26T02:19:12;1.70;;;1.10;;
20855;SDS011;63058;49.424;8.420;2024-02-26T02:21:38;1.30;;;0.98;;
20855;SDS011;63058;49.424;8.420;2024-02-26T02:24:03;1.15;;;0.93;;
20855;SDS011;63058;49.424;8.420;2024-02-26T02:26:29;1.50;;;1.05;;
20855;SDS011;63058;49.424;8.420;2024-02-26T02:28:54;1.10;;;1.00;;
20855;SDS011;63058;49.424;8.420;2024-02-26T02:31:20;0.95;;;0.82;;
20855;SDS011;63058;49.424;8.420;2024-02-26T02:33:46;1.83;;;1.20;;
20855;SDS011;63058;49.424;8.420;2024-02-26T02:36:11;1.92;;;1.38;;
20855;SDS011;63058;49.424;8.420;2024-02-26T02:38:37;3.28;;;1.23;;
20855;SDS011;63058;49.424;8.420;2024-02-26T02:41:03;3.28;;;1.13;;
20855;SDS011;63058;49.424;8.420;2024-02-26T02:43:30;1.63;;;1.15;;
20855;SDS011;63058;49.424;8.420;2024-02-26T02:45:55;1.52;;;1.02;;
20855;SDS011;63058;49.424;8.420;2024-02-26T02:48:21;1.88;;;1.10;;
20855;SDS011;63058;49.424;8.420;2024-02-26T02:50:46;1.23;;;0.95;;
20855;SDS011;63058;49.424;8.420;2024-02-26T02:53:12;1.05;;;0.95;;
20855;SDS011;63058;49.424;8.420;2024-02-26T02:55:37;0.80;;;0.80;;
20855;SDS011;63058;49.424;8.420;2024-02-26T02:58:03;1.40;;;0.93;;
20855;SDS011;63058;49.424;8.420;2024-02-26T03:00:28;0.70;;;0.70;;
20855;SDS011;63058;49.424;8.420;2024-02-26T03:02:54;1.45;;;0.80;;
20855;SDS011;63058;49.424;8.420;2024-02-26T03:05:20;1.27;;;0.90;;
20855;SDS011;63058;49.424;8.420;2024-02-26T03:07:45;0.98;;;0.75;;
20855;SDS011;63058;49.424;8.420;2024-02-26T03:10:11;0.82;;;0.60;;
20855;SDS011;63058;49.424;8.420;2024-02-26T03:12:36;0.82;;;0.73;;
20855;SDS011;63058;49.424;8.420;2024-02-26T03:15:02;0.98;;;0.50;;
20855;SDS011;63058;49.424;8.420;2024-02-26T03:17:28;0.50;;;0.45;;
20855;SDS011;63058;49.424;8.420;2024-02-26T03:19:54;0.60;;;0.40;;
20855;SDS011;63058;49.424;8.420;2024-02-26T03:22:19;0.70;;;0.57;;
20855;SDS011;63058;49.424;8.420;2024-02-26T03:24:45;0.80;;;0.60;;
20855;SDS011;63058;49.424;8.420;2024-02-26T03:27:11;0.55;;;0.50;;
20855;SDS011;63058;49.424;8.420;2024-02-26T03:29:37;1.17;;;0.50;;
20855;SDS011;63058;49.424;8.420;2024-02-26T03:32:03;0.40;;;0.40;;
20855;SDS011;63058;49.424;8.420;2024-02-26T03:34:29;0.90;;;0.52;;
20855;SDS011;63058;49.424;8.420;2024-02-26T03:36:55;2.13;;;0.47;;
20855;SDS011;63058;49.424;8.420;2024-02-26T03:39:21;0.70;;;0.50;;
20855;SDS011;63058;49.424;8.420;2024-02-26T03:41:47;0.60;;;0.50;;
20855;SDS011;63058;49.424;8.420;2024-02-26T03:44:13;0.65;;;0.45;;
20855;SDS011;63058;49.424;8.420;2024-02-26T03:46:39;1.42;;;0.50;;
20855;SDS011;63058;49.424;8.420;2024-02-26T03:49:04;0.75;;;0.60;;
20855;SDS011;63058;49.424;8.420;2024-02-26T03:51:30;1.02;;;0.50;;
20855;SDS011;63058;49.424;8.420;2024-02-26T03:53:57;0.73;;;0.50;;
20855;SDS011;63058;49.424;8.420;2024-02-26T03:56:23;1.08;;;0.60;;
20855;SDS011;63058;49.424;8.420;2024-02-26T03:58:50;1.08;;;0.60;;
20855;SDS011;63058;49.424;8.420;2024-02-26T04:01:15;0.70;;;0.40;;
20855;SDS011;63058;49.424;8.420;2024-02-26T04:03:41;0.63;;;0.60;;
20855;SDS011;63058;49.424;8.420;2024-02-26T04:06:10;0.60;;;0.50;;
20855;SDS011;63058;49.424;8.420;2024-02-26T04:08:36;0.88;;;0.60;;
20855;SDS011;63058;49.424;8.420;2024-02-26T04:11:03;1.08;;;0.80;;
20855;SDS011;63058;49.424;8.420;2024-02-26T04:13:32;0.60;;;0.52;;
20855;SDS011;63058;49.424;8.420;2024-02-26T04:15:58;1.20;;;0.52;;
20855;SDS011;63058;49.424;8.420;2024-02-26T04:18:26;0.98;;;0.60;;
20855;SDS011;63058;49.424;8.420;2024-02-26T04:20:52;0.82;;;0.60;;
20855;SDS011;63058;49.424;8.420;2024-02-26T04:23:18;0.55;;;0.40;;
20855;SDS011;63058;49.424;8.420;2024-02-26T04:25:43;0.47;;;0.47;;
20855;SDS011;63058;49.424;8.420;2024-02-26T04:28:09;0.85;;;0.50;;
20855;SDS011;63058;49.424;8.420;2024-02-26T04:30:35;0.52;;;0.40;;
20855;SDS011;63058;49.424;8.420;2024-02-26T04:33:01;0.60;;;0.40;;
20855;SDS011;63058;49.424;8.420;2024-02-26T04:35:27;0.70;;;0.52;;
20855;SDS011;63058;49.424;8.420;2024-02-26T04:37:52;0.60;;;0.50;;
20855;SDS011;63058;49.424;8.420;2024-02-26T04:40:18;0.50;;;0.50;;
20855;SDS011;63058;49.424;8.420;2024-02-26T04:42:43;0.47;;;0.40;;
20855;SDS011;63058;49.424;8.420;2024-02-26T04:45:09;1.02;;;0.50;;
20855;SDS011;63058;49.424;8.420;2024-02-26T04:47:34;1.00;;;0.80;;
20855;SDS011;63058;49.424;8.420;2024-02-26T04:50:00;1.10;;;0.63;;
20855;SDS011;63058;49.424;8.420;2024-02-26T04:52:25;1.08;;;0.50;;
20855;SDS011;63058;49.424;8.420;2024-02-26T04:54:51;0.57;;;0.50;;
20855;SDS011;63058;49.424;8.420;2024-02-26T04:57:16;0.60;;;0.50;;
20855;SDS011;63058;49.424;8.420;2024-02-26T04:59:43;0.60;;;0.57;;
20855;SDS011;63058;49.424;8.420;2024-02-26T05:02:10;0.98;;;0.60;;
20855;SDS011;63058;49.424;8.420;2024-02-26T05:04:36;0.52;;;0.52;;
20855;SDS011;63058;49.424;8.420;2024-02-26T05:07:02;0.55;;;0.50;;
20855;SDS011;63058;49.424;8.420;2024-02-26T05:09:28;0.57;;;0.50;;
20855;SDS011;63058;49.424;8.420;2024-02-26T05:11:54;0.93;;;0.60;;
20855;SDS011;63058;49.424;8.420;2024-02-26T05:14:19;0.77;;;0.60;;
20855;SDS011;63058;49.424;8.420;2024-02-26T05:16:45;0.80;;;0.70;;
20855;SDS011;63058;49.424;8.420;2024-02-26T05:19:11;1.75;;;0.50;;
20855;SDS011;63058;49.424;8.420;2024-02-26T05:21:36;1.13;;;0.60;;
20855;SDS011;63058;49.424;8.420;2024-02-26T05:24:02;0.60;;;0.60;;
20855;SDS011;63058;49.424;8.420;2024-02-26T05:26:27;0.90;;;0.70;;
20855;SDS011;63058;49.424;8.420;2024-02-26T05:28:53;0.50;;;0.50;;
20855;SDS011;63058;49.424;8.420;2024-02-26T05:31:24;0.77;;;0.70;;
20855;SDS011;63058;49.424;8.420;2024-02-26T05:33:50;0.70;;;0.60;;
20855;SDS011;63058;49.424;8.420;2024-02-26T05:36:18;0.90;;;0.60;;
20855;SDS011;63058;49.424;8.420;2024-02-26T05:38:46;1.20;;;0.70;;
20855;SDS011;63058;49.424;8.420;2024-02-26T05:41:11;0.70;;;0.70;;
20855;SDS011;63058;49.424;8.420;2024-02-26T05:43:37;1.27;;;0.60;;
20855;SDS011;63058;49.424;8.420;2024-02-26T05:46:03;0.50;;;0.50;;
20855;SDS011;63058;49.424;8.420;2024-02-26T05:48:28;1.17;;;0.60;;
20855;SDS011;63058;49.424;8.420;2024-02-26T05:50:54;1.15;;;0.60;;
20855;SDS011;63058;49.424;8.420;2024-02-26T05:53:20;1.77;;;0.55;;
20855;SDS011;63058;49.424;8.420;2024-02-26T05:55:45;1.10;;;0.70;;
20855;SDS011;63058;49.424;8.420;2024-02-26T05:58:11;0.90;;;0.70;;
20855;SDS011;63058;49.424;8.420;2024-02-26T06:00:36;1.52;;;0.60;;
20855;SDS011;63058;49.424;8.420;2024-02-26T06:03:02;2.28;;;0.80;;
20855;SDS011;63058;49.424;8.420;2024-02-26T06:05:27;1.35;;;0.70;;
20855;SDS011;63058;49.424;8.420;2024-02-26T06:07:53;0.70;;;0.57;;
20855;SDS011;63058;49.424;8.420;2024-02-26T06:10:19;0.70;;;0.60;;
20855;SDS011;63058;49.424;8.420;2024-02-26T06:12:46;1.00;;;0.73;;
20855;SDS011;63058;49.424;8.420;2024-02-26T06:15:12;1.38;;;0.80;;
20855;SDS011;63058;49.424;8.420;2024-02-26T06:17:37;0.90;;;0.80;;
20855;SDS011;63058;49.424;8.420;2024-02-26T06:20:03;1.83;;;0.60;;
20855;SDS011;63058;49.424;8.420;2024-02-26T06:22:31;2.05;;;0.70;;
20855;SDS011;63058;49.424;8.420;2024-02-26T06:24:57;1.52;;;0.82;;
20855;SDS011;63058;49.424;8.420;2024-02-26T06:27:23;1.40;;;1.00;;
20855;SDS011;63058;49.424;8.420;2024-02-26T06:29:48;1.17;;;0.75;;
20855;SDS011;63058;49.424;8.420;2024-02-26T06:32:14;1.55;;;1.02;;
20855;SDS011;63058;49.424;8.420;2024-02-26T06:34:40;1.38;;;0.82;;
20855;SDS011;63058;49.424;8.420;2024-02-26T06:37:07;1.10;;;0.85;;
20855;SDS011;63058;49.424;8.420;2024-02-26T06:39:32;1.70;;;1.00;;
20855;SDS011;63058;49.424;8.420;2024-02-26T06:41:58;2.08;;;0.98;;
20855;SDS011;63058;49.424;8.420;2024-02-26T06:44:27;0.98;;;0.88;;
20855;SDS011;63058;49.424;8.420;2024-02-26T06:46:57;1.10;;;1.00;;
20855;SDS011;63058;49.424;8.420;2024-02-26T06:49:26;1.38;;;1.00;;
20855;SDS011;63058;49.424;8.420;2024-02-26T06:51:52;1.25;;;1.10;;
20855;SDS011;63058;49.424;8.420;2024-02-26T06:54:17;1.17;;;0.82;;
20855;SDS011;63058;49.424;8.420;2024-02-26T06:56:43;2.05;;;1.10;;
20855;SDS011;63058;49.424;8.420;2024-02-26T06:59:08;1.10;;;1.00;;
20855;SDS011;63058;49.424;8.420;2024-02-26T07:01:34;3.05;;;1.00;;
20855;SDS011;63058;49.424;8.420;2024-02-26T07:03:59;1.15;;;1.05;;
20855;SDS011;63058;49.424;8.420;2024-02-26T07:06:25;1.25;;;1.00;;
20855;SDS011;63058;49.424;8.420;2024-02-26T07:08:54;2.30;;;1.15;;
20855;SDS011;63058;49.424;8.420;2024-02-26T07:11:19;1.38;;;1.10;;
20855;SDS011;63058;49.424;8.420;2024-02-26T07:13:45;1.70;;;1.08;;
20855;SDS011;63058;49.424;8.420;2024-02-26T07:16:11;1.80;;;1.13;;
20855;SDS011;63058;49.424;8.420;2024-02-26T07:18:38;1.50;;;1.30;;
20855;SDS011;63058;49.424;8.420;2024-02-26T07:21:04;2.60;;;1.30;;
20855;SDS011;63058;49.424;8.420;2024-02-26T07:23:30;1.75;;;1.33;;
20855;SDS011;63058;49.424;8.420;2024-02-26T07:25:56;1.98;;;1.42;;
20855;SDS011;63058;49.424;8.420;2024-02-26T07:28:22;1.55;;;1.30;;
20855;SDS011;63058;49.424;8.420;2024-02-26T07:30:47;1.92;;;1.10;;
20855;SDS011;63058;49.424;8.420;2024-02-26T07:33:13;1.60;;;1.27;;
20855;SDS011;63058;49.424;8.420;2024-02-26T07:35:38;1.92;;;1.23;;
20855;SDS011;63058;49.424;8.420;2024-02-26T07:38:04;1.80;;;1.05;;
20855;SDS011;63058;49.424;8.420;2024-02-26T07:40:30;2.55;;;1.33;;
20855;SDS011;63058;49.424;8.420;2024-02-26T07:42:56;1.67;;;1.38;;
20855;SDS011;63058;49.424;8.420;2024-02-26T07:45:21;1.70;;;1.30;;
20855;SDS011;63058;49.424;8.420;2024-02-26T07:47:47;1.92;;;1.38;;
20855;SDS011;63058;49.424;8.420;2024-02-26T07:50:13;1.95;;;1.65;;
20855;SDS011;63058;49.424;8.420;2024-02-26T07:52:39;2.65;;;1.80;;
20855;SDS011;63058;49.424;8.420;2024-02-26T07:55:05;2.03;;;1.40;;
20855;SDS011;63058;49.424;8.420;2024-02-26T07:57:32;3.28;;;1.50;;
20855;SDS011;63058;49.424;8.420;2024-02-26T08:00:01;1.20;;;1.10;;
20855;SDS011;63058;49.424;8.420;2024-02-26T08:02:34;1.50;;;1.30;;
20855;SDS011;63058;49.424;8.420;2024-02-26T08:05:00;1.55;;;1.23;;
20855;SDS011;63058;49.424;8.420;2024-02-26T08:07:26;1.70;;;1.20;;
20855;SDS011;63058;49.424;8.420;2024-02-26T08:09:52;2.42;;;1.40;;
20855;SDS011;63058;49.424;8.420;2024-02-26T08:12:17;1.67;;;1.20;;
20855;SDS011;63058;49.424;8.420;2024-02-26T08:14:43;1.67;;;0.95;;
20855;SDS011;63058;49.424;8.420;2024-02-26T08:17:09;2.55;;;1.17;;
20855;SDS011;63058;49.424;8.420;2024-02-26T08:19:34;1.73;;;1.10;;
20855;SDS011;63058;49.424;8.420;2024-02-26T08:22:00;2.70;;;1.10;;
20855;SDS011;63058;49.424;8.420;2024-02-26T08:24:26;1.60;;;0.90;;
20855;SDS011;63058;49.424;8.420;2024-02-26T08:26:52;1.30;;;0.95;;
20855;SDS011;63058;49.424;8.420;2024-02-26T08:29:17;1.30;;;1.20;;
20855;SDS011;63058;49.424;8.420;2024-02-26T08:31:43;1.75;;;1.20;;
20855;SDS011;63058;49.424;8.420;2024-02-26T08:34:09;1.92;;;0.93;;
20855;SDS011;63058;49.424;8.420;2024-02-26T08:36:34;1.85;;;1.10;;
20855;SDS011;63058;49.424;8.420;2024-02-26T08:39:00;1.25;;;1.05;;
20855;SDS011;63058;49.424;8.420;2024-02-26T08:41:26;1.60;;;1.10;;
20855;SDS011;63058;49.424;8.420;2024-02-26T08:43:51;1.35;;;1.10;;
20855;SDS011;63058;49.424;8.420;2024-02-26T08:46:17;1.17;;;0.95;;
20855;SDS011;63058;49.424;8.420;2024-02-26T08:48:42;1.55;;;1.13;;
20855;SDS011;63058;49.424;8.420;2024-02-26T08:51:08;1.90;;;1.13;;
20855;SDS011;63058;49.424;8.420;2024-02-26T08:53:35;1.90;;;1.10;;
20855;SDS011;63058;49.424;8.420;2024-02-26T08:56:00;1.42;;;1.20;;
20855;SDS011;63058;49.424;8.420;2024-02-26T08:58:29;1.50;;;1.17;;
20855;SDS011;63058;49.424;8.420;2024-02-26T09:00:55;1.60;;;1.33;;
20855;SDS011;63058;49.424;8.420;2024-02-26T09:03:21;1.60;;;1.30;;
20855;SDS011;63058;49.424;8.420;2024-02-26T09:05:47;1.58;;;1.10;;
20855;SDS011;63058;49.424;8.420;2024-02-26T09:08:13;2.20;;;1.20;;
20855;SDS011;63058;49.424;8.420;2024-02-26T09:10:39;2.22;;;1.17;;
20855;SDS011;63058;49.424;8.420;2024-02-26T09:13:05;1.42;;;1.00;;
20855;SDS011;63058;49.424;8.420;2024-02-26T09:15:30;1.20;;;1.00;;
20855;SDS011;63058;49.424;8.420;2024-02-26T09:17:56;1.08;;;0.93;;
20855;SDS011;63058;49.424;8.420;2024-02-26T09:20:22;1.65;;;0.85;;
20855;SDS011;63058;49.424;8.420;2024-02-26T09:22:48;1.67;;;0.85;;
20855;SDS011;63058;49.424;8.420;2024-02-26T09:25:15;1.15;;;0.80;;
20855;SDS011;63058;49.424;8.420;2024-02-26T09:27:42;2.95;;;1.10;;
20855;SDS011;63058;49.424;8.420;2024-02-26T09:30:11;1.05;;;0.85;;
20855;SDS011;63058;49.424;8.420;2024-02-26T09:32:37;0.90;;;0.80;;
20855;SDS011;63058;49.424;8.420;2024-02-26T09:35:03;1.20;;;0.95;;
20855;SDS011;63058;49.424;8.420;2024-02-26T09:37:29;1.65;;;0.93;;
20855;SDS011;63058;49.424;8.420;2024-02-26T09:39:55;1.17;;;0.90;;
20855;SDS011;63058;49.424;8.420;2024-02-26T09:42:20;2.10;;;1.10;;
20855;SDS011;63058;49.424;8.420;2024-02-26T09:44:50;1.38;;;0.82;;
20855;SDS011;63058;49.424;8.420;2024-02-26T09:47:19;1.98;;;1.00;;
20855;SDS011;63058;49.424;8.420;2024-02-26T09:49:47;1.80;;;1.00;;
20855;SDS011;63058;49.424;8.420;2024-02-26T09:52:13;1.13;;;0.90;;
20855;SDS011;63058;49.424;8.420;2024-02-26T09:54:40;1.00;;;0.80;;
20855;SDS011;63058;49.424;8.420;2024-02-26T09:57:07;1.65;;;1.00;;
20855;SDS011;63058;49.424;8.420;2024-02-26T09:59:40;1.17;;;0.90;;
20855;SDS011;63058;49.424;8.420;2024-02-26T10:02:12;1.15;;;0.77;;
20855;SDS011;63058;49.424;8.420;2024-02-26T10:04:41;6.65;;;1.20;;
20855;SDS011;63058;49.424;8.420;2024-02-26T10:07:11;1.27;;;0.90;;
20855;SDS011;63058;49.424;8.420;2024-02-26T10:09:37;0.93;;;0.82;;
20855;SDS011;63058;49.424;8.420;2024-02-26T10:12:04;0.93;;;0.80;;
20855;SDS011;63058;49.424;8.420;2024-02-26T10:14:32;1.83;;;1.10;;
20855;SDS011;63058;49.424;8.420;2024-02-26T10:16:57;1.80;;;1.17;;
20855;SDS011;63058;49.424;8.420;2024-02-26T10:19:26;1.98;;;0.90;;
20855;SDS011;63058;49.424;8.420;2024-02-26T10:21:56;1.73;;;1.00;;
20855;SDS011;63058;49.424;8.420;2024-02-26T10:24:23;1.23;;;0.90;;
20855;SDS011;63058;49.424;8.420;2024-02-26T10:26:53;2.40;;;0.90;;
20855;SDS011;63058;49.424;8.420;2024-02-26T10:29:20;1.17;;;0.80;;
20855;SDS011;63058;49.424;8.420;2024-02-26T10:31:46;1.60;;;1.05;;
20855;SDS011;63058;49.424;8.420;2024-02-26T10:34:12;1.20;;;0.93;;
20855;SDS011;63058;49.424;8.420;2024-02-26T10:36:39;1.20;;;0.75;;
20855;SDS011;63058;49.424;8.420;2024-02-26T10:39:09;1.52;;;1.00;;
20855;SDS011;63058;49.424;8.420;2024-02-26T10:41:37;1.52;;;1.05;;
20855;SDS011;63058;49.424;8.420;2024-02-26T10:44:03;1.88;;;1.00;;
20855;SDS011;63058;49.424;8.420;2024-02-26T10:46:29;1.90;;;1.13;;
20855;SDS011;63058;49.424;8.420;2024-02-26T10:48:54;1.52;;;0.80;;
20855;SDS011;63058;49.424;8.420;2024-02-26T10:51:29;2.08;;;1.08;;
20855;SDS011;63058;49.424;8.420;2024-02-26T10:53:56;1.40;;;1.00;;
20855;SDS011;63058;49.424;8.420;2024-02-26T10:56:27;1.00;;;0.90;;
20855;SDS011;63058;49.424;8.420;2024-02-26T10:58:54;1.33;;;0.95;;
20855;SDS011;63058;49.424;8.420;2024-02-26T11:01:21;2.88;;;1.02;;
20855;SDS011;63058;49.424;8.420;2024-02-26T11:03:52;1.08;;;0.75;;
20855;SDS011;63058;49.424;8.420;2024-02-26T11:06:21;0.82;;;0.70;;
20855;SDS011;63058;49.424;8.420;2024-02-26T11:08:50;1.10;;;0.90;;
20855;SDS011;63058;49.424;8.420;2024-02-26T11:11:17;0.95;;;0.80;;
20855;SDS011;63058;49.424;8.420;2024-02-26T11:13:44;1.23;;;0.70;;
20855;SDS011;63058;49.424;8.420;2024-02-26T11:16:16;0.60;;;0.60;;
20855;SDS011;63058;49.424;8.420;2024-02-26T11:18:43;0.73;;;0.70;;
20855;SDS011;63058;49.424;8.420;2024-02-26T11:21:17;0.80;;;0.70;;
20855;SDS011;63058;49.424;8.420;2024-02-26T11:23:45;1.20;;;0.80;;
20855;SDS011;63058;49.424;8.420;2024-02-26T11:26:11;1.30;;;0.80;;
20855;SDS011;63058;49.424;8.420;2024-02-26T11:28:40;1.80;;;1.00;;
20855;SDS011;63058;49.424;8.420;2024-02-26T11:31:06;1.25;;;0.80;;
20855;SDS011;63058;49.424;8.420;2024-02-26T11:33:34;1.52;;;0.80;;
20855;SDS011;63058;49.424;8.420;2024-02-26T11:36:07;1.10;;;1.00;;
20855;SDS011;63058;49.424;8.420;2024-02-26T11:38:34;1.77;;;0.98;;
20855;SDS011;63058;49.424;8.420;2024-02-26T11:41:01;1.13;;;0.68;;
20855;SDS011;63058;49.424;8.420;2024-02-26T11:46:28;0.98;;;0.70;;
20855;SDS011;63058;49.424;8.420;2024-02-26T11:48:59;0.95;;;0.70;;
20855;SDS011;63058;49.424;8.420;2024-02-26T11:51:50;0.60;;;0.60;;
20855;SDS011;63058;49.424;8.420;2024-02-26T11:57:24;1.25;;;0.70;;
20855;SDS011;63058;49.424;8.420;2024-02-26T11:59:52;1.30;;;0.70;;
20855;SDS011;63058;49.424;8.420;2024-02-26T12:07:53;2.05;;;0.80;;
20855;SDS011;63058;49.424;8.420;2024-02-26T12:10:24;0.90;;;0.80;;
20855;SDS011;63058;49.424;8.420;2024-02-26T12:12:52;3.25;;;0.90;;
20855;SDS011;63058;49.424;8.420;2024-02-26T12:15:19;0.85;;;0.70;;
20855;SDS011;63058;49.424;8.420;2024-02-26T12:17:48;0.90;;;0.80;;
20855;SDS011;63058;49.424;8.420;2024-02-26T12:20:14;1.60;;;1.00;;
20855;SDS011;63058;49.424;8.420;2024-02-26T12:22:44;1.40;;;1.00;;
20855;SDS011;63058;49.424;8.420;2024-02-26T12:25:14;1.80;;;0.80;;
20855;SDS011;63058;49.424;8.420;2024-02-26T12:27:39;2.65;;;0.75;;
20855;SDS011;63058;49.424;8.420;2024-02-26T12:30:05;0.70;;;0.70;;
20855;SDS011;63058;49.424;8.420;2024-02-26T12:32:31;1.17;;;0.68;;
20855;SDS011;63058;49.424;8.420;2024-02-26T12:34:57;0.70;;;0.70;;
20855;SDS011;63058;49.424;8.420;2024-02-26T12:37:24;1.83;;;0.82;;
20855;SDS011;63058;49.424;8.420;2024-02-26T12:39:51;0.77;;;0.63;;
20855;SDS011;63058;49.424;8.420;2024-02-26T12:42:16;0.75;;;0.50;;
20855;SDS011;63058;49.424;8.420;2024-02-26T12:44:44;0.82;;;0.70;;
20855;SDS011;63058;49.424;8.420;2024-02-26T12:47:11;2.85;;;0.70;;
20855;SDS011;63058;49.424;8.420;2024-02-26T12:49:42;1.15;;;0.70;;
20855;SDS011;63058;49.424;8.420;2024-02-26T12:52:08;0.73;;;0.70;;
20855;SDS011;63058;49.424;8.420;2024-02-26T12:54:35;2.58;;;0.77;;
20855;SDS011;63058;49.424;8.420;2024-02-26T12:57:04;1.33;;;0.60;;
20855;SDS011;63058;49.424;8.420;2024-02-26T12:59:31;0.50;;;0.43;;
20855;SDS011;63058;49.424;8.420;2024-02-26T13:01:58;0.50;;;0.47;;
20855;SDS011;63058;49.424;8.420;2024-02-26T13:04:24;0.57;;;0.57;;
20855;SDS011;63058;49.424;8.420;2024-02-26T13:06:52;0.73;;;0.50;;
20855;SDS011;63058;49.424;8.420;2024-02-26T13:09:18;0.95;;;0.60;;
20855;SDS011;63058;49.424;8.420;2024-02-26T13:11:44;1.20;;;0.60;;
20855;SDS011;63058;49.424;8.420;2024-02-26T13:14:22;0.52;;;0.52;;
20855;SDS011;63058;49.424;8.420;2024-02-26T13:16:54;0.47;;;0.47;;
20855;SDS011;63058;49.424;8.420;2024-02-26T13:19:23;2.47;;;0.90;;
20855;SDS011;63058;49.424;8.420;2024-02-26T13:21:49;2.30;;;0.95;;
20855;SDS011;63058;49.424;8.420;2024-02-26T13:24:14;0.95;;;0.70;;
20855;SDS011;63058;49.424;8.420;2024-02-26T13:26:40;0.90;;;0.57;;
20855;SDS011;63058;49.424;8.420;2024-02-26T13:29:06;0.40;;;0.40;;
20855;SDS011;63058;49.424;8.420;2024-02-26T13:31:31;1.25;;;0.60;;
20855;SDS011;63058;49.424;8.420;2024-02-26T13:34:03;0.47;;;0.47;;
20855;SDS011;63058;49.424;8.420;2024-02-26T13:36:29;0.40;;;0.40;;
20855;SDS011;63058;49.424;8.420;2024-02-26T13:38:55;1.02;;;0.50;;
20855;SDS011;63058;49.424;8.420;2024-02-26T13:41:23;0.60;;;0.47;;
20855;SDS011;63058;49.424;8.420;2024-02-26T13:43:49;0.68;;;0.50;;
20855;SDS011;63058;49.424;8.420;2024-02-26T13:46:15;0.60;;;0.40;;
20855;SDS011;63058;49.424;8.420;2024-02-26T13:48:42;0.50;;;0.40;;
20855;SDS011;63058;49.424;8.420;2024-02-26T13:51:08;1.65;;;0.38;;
20855;SDS011;63058;49.424;8.420;2024-02-26T13:53:34;0.57;;;0.45;;
20855;SDS011;63058;49.424;8.420;2024-02-26T13:56:00;0.30;;;0.30;;
20855;SDS011;63058;49.424;8.420;2024-02-26T13:58:26;0.82;;;0.50;;
20855;SDS011;63058;49.424;8.420;2024-02-26T14:00:52;0.50;;;0.50;;
20855;SDS011;63058;49.424;8.420;2024-02-26T14:03:19;0.50;;;0.50;;
20855;SDS011;63058;49.424;8.420;2024-02-26T14:05:45;0.95;;;0.50;;
20855;SDS011;63058;49.424;8.420;2024-02-26T14:08:10;0.95;;;0.40;;
20855;SDS011;63058;49.424;8.420;2024-02-26T14:10:36;0.75;;;0.50;;
20855;SDS011;63058;49.424;8.420;2024-02-26T14:13:02;0.60;;;0.40;;
20855;SDS011;63058;49.424;8.420;2024-02-26T14:15:28;0.52;;;0.43;;
20855;SDS011;63058;49.424;8.420;2024-02-26T14:17:54;0.63;;;0.40;;
20855;SDS011;63058;49.424;8.420;2024-02-26T14:20:21;0.70;;;0.47;;
20855;SDS011;63058;49.424;8.420;2024-02-26T14:22:49;0.73;;;0.45;;
20855;SDS011;63058;49.424;8.420;2024-02-26T14:25:16;1.10;;;0.47;;
20855;SDS011;63058;49.424;8.420;2024-02-26T14:27:42;0.40;;;0.40;;
20855;SDS011;63058;49.424;8.420;2024-02-26T14:30:07;0.77;;;0.60;;
20855;SDS011;63058;49.424;8.420;2024-02-26T14:32:33;0.73;;;0.47;;
20855;SDS011;63058;49.424;8.420;2024-02-26T14:35:01;2.80;;;0.50;;
20855;SDS011;63058;49.424;8.420;2024-02-26T14:37:28;1.25;;;0.50;;
20855;SDS011;63058;49.424;8.420;2024-02-26T14:39:53;0.30;;;0.30;;
20855;SDS011;63058;49.424;8.420;2024-02-26T14:42:19;2.58;;;0.57;;
20855;SDS011;63058;49.424;8.420;2024-02-26T14:44:44;0.40;;;0.40;;
20855;SDS011;63058;49.424;8.420;2024-02-26T14:47:12;1.20;;;0.60;;
20855;SDS011;63058;49.424;8.420;2024-02-26T14:49:38;0.43;;;0.43;;
20855;SDS011;63058;49.424;8.420;2024-02-26T14:52:04;0.77;;;0.45;;
20855;SDS011;63058;49.424;8.420;2024-02-26T14:54:29;1.15;;;0.50;;